aviador You're here:

GMFM Decoded Metar

MEKNES in MOROCCO
Report Time2017-08-24 06:00:00
UTC Time2017-08-24 06:59:33
Flight Rules vfr VFR
Wind150° at 03 kt
W.Decomp.*RWY 09: 1.4 kt HW 2.6 kt RCW
RWY 08: 0.9 kt HW 2.9 kt RCW
W.Rank150° ranks 12
Current wind is below 150° avg. (4.2)
Visibility9999 m
Phenomena:N/A
Clouds:N/A
Expected CloudBase > 5,200 ft AGL from Temp-Dew spread
CeilingNone
Temp24°C (ISA +13)
Dew Point11°C (44% RH)
AAT23.2°C
QNH1016 hPa
Density Alt3,337 ft
Elevation1,801 ft
Report Wrong Elevation
Raw Report
GMFM 240600Z 15003KT CAVOK 24/11 Q1016 NOSIG=

Extra information for GMFM:More info

Metar Taf Metar & Taf Last 4 Metars F.Rules Stats Wind Profile Meteogram Temp Stats Airport Information Weather charts Add Link Nearby VenuesMetar ALERT Operation Metar Decoded Social comments